Inspiration — C6FM5 — position and weather

sailwx.info

Track history (hours):
 
Tides and Currents Weather Stations Pressure Air Temp Water Temp Dewpoint Dewpoint Depression Visibility Wind Speed Wind Dir Waves Ship Positions

Inspiration

Operator: Carnival Cruise Lines

Last reported at 2020-Mar-31 11:30 UTC. Time now 2020-Apr-05 08:21 UTC.
Position N 31°38' W 117°15'.

Type: Ship. MMSI: 309484000.

Date/timePositionNaut miles runAvg speedWind from/ knotsBaromVisibWave heightAir tempDewpointWater temp
2020-Mar-31 11:30N 31°38' W 117°15'4 6.9
2020-Mar-31 10:56N 31°37' W 117°20'6 6.9
2020-Mar-31 10:00N 31°36' W 117°27'3 6.9
2020-Mar-31 09:30N 31°35' W 117°31'7 6.8
2020-Mar-31 08:30N 31°34' W 117°39'6 5.6
2020-Mar-31 07:30N 31°39' W 117°40'7 7.3
2020-Mar-31 06:30N 31°47' W 117°42'15 7.2
2020-Mar-31 04:24N 31°56' W 117°28'6 7.0
2020-Mar-31 03:30N 31°54' W 117°20'20 8.1
2020-Mar-31 01:00N 31°50' W 116°57'  
2020-Mar-28 02:02N 32°08' W 118°01'1 7.0
2020-Mar-28 01:57N 32°09' W 118°01'7 6.9
2020-Mar-28 00:58N 32°15' W 117°58'17 6.9
2020-Mar-27 22:30N 32°31' W 117°50'7 6.9
2020-Mar-27 21:30N 32°37' W 117°48'31 7.0
2020-Mar-27 17:00N 33°07' W 118°01'4 7.1
2020-Mar-27 16:30N 33°10' W 118°02'4 7.2
2020-Mar-27 16:00N 33°14' W 118°03'7 7.3
2020-Mar-27 15:00N 33°20' W 118°06'12 7.7
2020-Mar-27 13:30N 33°31' W 118°11'8 8.0
2020-Mar-27 12:30N 33°39' W 118°12'4 8.4
2020-Mar-27 12:00N 33°43' W 118°11'2 1.1
2020-Mar-27 10:25N 33°45' W 118°11'0 0.0
2020-Mar-27 09:55N 33°45' W 118°11'0 0.0
2020-Mar-27 07:58N 33°45' W 118°11'0 0.0
2020-Mar-27 05:58N 33°45' W 118°11'0 0.0
2020-Mar-27 03:22N 33°45' W 118°11'0 0.0
2020-Mar-26 21:28N 33°45' W 118°11'0 0.0
2020-Mar-26 20:58N 33°45' W 118°11'0 0.0
2020-Mar-26 17:55N 33°45' W 118°11'0 0.0
2020-Mar-26 17:28N 33°45' W 118°11'0 0.0
2020-Mar-26 14:58N 33°45' W 118°11'0 0.0
2020-Mar-26 13:28N 33°45' W 118°11'0 0.0
2020-Mar-26 10:55N 33°45' W 118°11'0 0.0
2020-Mar-26 09:58N 33°45' W 118°11'0 0.0
2020-Mar-26 09:25N 33°45' W 118°11'0 0.0
2020-Mar-26 07:58N 33°45' W 118°11'0 0.0
2020-Mar-26 07:22N 33°45' W 118°11'0 0.0
2020-Mar-26 06:55N 33°45' W 118°11'0 0.0
2020-Mar-26 06:28N 33°45' W 118°11'0 0.0
2020-Mar-26 05:58N 33°45' W 118°11'0 0.0
2020-Mar-26 05:28N 33°45' W 118°11'0 0.0
2020-Mar-26 04:25N 33°45' W 118°11'0 0.0
2020-Mar-26 03:28N 33°45' W 118°11'0 0.0
2020-Mar-25 22:58N 33°45' W 118°11'0 0.0
2020-Mar-25 20:28N 33°45' W 118°11'0 0.0
2020-Mar-25 15:28N 33°45' W 118°11'0 0.0
2020-Mar-25 13:30N 33°45' W 118°11'0 0.6
2020-Mar-25 13:00N 33°45' W 118°11'20 8.0
2020-Mar-25 10:30N 33°26' W 118°05'16 8.0
2020-Mar-25 08:30N 33°10' W 117°58'4 8.1
2020-Mar-25 08:00N 33°07' W 117°57'20 8.0
2020-Mar-25 05:30N 32°48' W 117°48'31 7.6
2020-Mar-25 01:30N 32°20' W 117°35'4 7.2
2020-Mar-25 01:00N 32°16' W 117°33'4 7.1
2020-Mar-25 00:28N 32°13' W 117°31'  
Track history (hours):
 
Tides and Currents Weather Stations Pressure Air Temp Water Temp Dewpoint Dewpoint Depression Visibility Wind Speed Wind Dir Waves Ship Positions

Inspiration

Operator: Carnival Cruise Lines

Last reported at 2020-Mar-31 11:30 UTC. Time now 2020-Apr-05 08:21 UTC.
Position N 31°38' W 117°15'.

Type: Ship. MMSI: 309484000.

Date/timePositionNaut miles runAvg speedWind from/ knotsBaromVisibWave heightAir tempDewpointWater temp
2020-Mar-31 11:30N 31°38' W 117°15'4 6.9
2020-Mar-31 10:56N 31°37' W 117°20'6 6.9
2020-Mar-31 10:00N 31°36' W 117°27'3 6.9
2020-Mar-31 09:30N 31°35' W 117°31'7 6.8
2020-Mar-31 08:30N 31°34' W 117°39'6 5.6
2020-Mar-31 07:30N 31°39' W 117°40'7 7.3
2020-Mar-31 06:30N 31°47' W 117°42'15 7.2
2020-Mar-31 04:24N 31°56' W 117°28'6 7.0
2020-Mar-31 03:30N 31°54' W 117°20'20 8.1
2020-Mar-31 01:00N 31°50' W 116°57'  
2020-Mar-28 02:02N 32°08' W 118°01'1 7.0
2020-Mar-28 01:57N 32°09' W 118°01'7 6.9
2020-Mar-28 00:58N 32°15' W 117°58'17 6.9
2020-Mar-27 22:30N 32°31' W 117°50'7 6.9
2020-Mar-27 21:30N 32°37' W 117°48'31 7.0
2020-Mar-27 17:00N 33°07' W 118°01'4 7.1
2020-Mar-27 16:30N 33°10' W 118°02'4 7.2
2020-Mar-27 16:00N 33°14' W 118°03'7 7.3
2020-Mar-27 15:00N 33°20' W 118°06'12 7.7
2020-Mar-27 13:30N 33°31' W 118°11'8 8.0
2020-Mar-27 12:30N 33°39' W 118°12'4 8.4
2020-Mar-27 12:00N 33°43' W 118°11'2 1.1
2020-Mar-27 10:25N 33°45' W 118°11'0 0.0
2020-Mar-27 09:55N 33°45' W 118°11'0 0.0
2020-Mar-27 07:58N 33°45' W 118°11'0 0.0
2020-Mar-27 05:58N 33°45' W 118°11'0 0.0
2020-Mar-27 03:22N 33°45' W 118°11'0 0.0
2020-Mar-26 21:28N 33°45' W 118°11'0 0.0
2020-Mar-26 20:58N 33°45' W 118°11'0 0.0
2020-Mar-26 17:55N 33°45' W 118°11'0 0.0
2020-Mar-26 17:28N 33°45' W 118°11'0 0.0
2020-Mar-26 14:58N 33°45' W 118°11'0 0.0
2020-Mar-26 13:28N 33°45' W 118°11'0 0.0
2020-Mar-26 10:55N 33°45' W 118°11'0 0.0
2020-Mar-26 09:58N 33°45' W 118°11'0 0.0
2020-Mar-26 09:25N 33°45' W 118°11'0 0.0
2020-Mar-26 07:58N 33°45' W 118°11'0 0.0
2020-Mar-26 07:22N 33°45' W 118°11'0 0.0
2020-Mar-26 06:55N 33°45' W 118°11'0 0.0
2020-Mar-26 06:28N 33°45' W 118°11'0 0.0
2020-Mar-26 05:58N 33°45' W 118°11'0 0.0
2020-Mar-26 05:28N 33°45' W 118°11'0 0.0
2020-Mar-26 04:25N 33°45' W 118°11'0 0.0
2020-Mar-26 03:28N 33°45' W 118°11'0 0.0
2020-Mar-25 22:58N 33°45' W 118°11'0 0.0
2020-Mar-25 20:28N 33°45' W 118°11'0 0.0
2020-Mar-25 15:28N 33°45' W 118°11'0 0.0
2020-Mar-25 13:30N 33°45' W 118°11'0 0.6
2020-Mar-25 13:00N 33°45' W 118°11'20 8.0
2020-Mar-25 10:30N 33°26' W 118°05'16 8.0
2020-Mar-25 08:30N 33°10' W 117°58'4 8.1
2020-Mar-25 08:00N 33°07' W 117°57'20 8.0
2020-Mar-25 05:30N 32°48' W 117°48'31 7.6
2020-Mar-25 01:30N 32°20' W 117°35'4 7.2
2020-Mar-25 01:00N 32°16' W 117°33'4 7.1
2020-Mar-25 00:28N 32°13' W 117°31'  

Dump ship's entire track history